createdAt,value
2022-11-22T00:01:22.813Z,3.30
2022-11-22T00:02:54.666Z,3.30
2022-11-22T00:04:26.298Z,3.30
2022-11-22T00:05:57.891Z,3.40
2022-11-22T00:07:29.841Z,3.70
2022-11-22T00:09:01.519Z,3.20
2022-11-22T00:10:33.520Z,3.50
2022-11-22T00:12:05.668Z,3.15
2022-11-22T00:13:37.315Z,3.65
2022-11-22T00:15:10.548Z,3.35
2022-11-22T00:16:43.540Z,3.10
2022-11-22T00:18:15.195Z,3.40
2022-11-22T00:19:46.923Z,3.30
2022-11-22T00:21:18.804Z,3.10
2022-11-22T00:22:50.542Z,3.10
2022-11-22T00:24:22.156Z,2.80
2022-11-22T00:25:53.805Z,3.03
2022-11-22T00:27:27.056Z,3.20
2022-11-22T00:28:58.820Z,3.25
2022-11-22T00:30:30.571Z,3.28
2022-11-22T00:32:03.765Z,3.40
2022-11-22T00:33:35.483Z,3.35
2022-11-22T00:35:07.912Z,2.97
2022-11-22T00:36:39.533Z,3.65
2022-11-22T00:38:11.146Z,3.33
2022-11-22T00:39:42.755Z,3.75
2022-11-22T00:41:14.463Z,3.42
2022-11-22T00:42:46.110Z,3.40
2022-11-22T00:44:17.780Z,3.20
2022-11-22T00:45:49.496Z,3.88
2022-11-22T00:47:22.640Z,3.13
2022-11-22T00:48:54.345Z,3.63
2022-11-22T00:50:26.188Z,3.38
2022-11-22T00:51:57.862Z,3.40
2022-11-22T00:53:29.750Z,3.83
2022-11-22T00:55:01.398Z,3.30
2022-11-22T00:56:33.313Z,3.30
2022-11-22T00:58:04.995Z,3.60
2022-11-22T00:59:36.648Z,3.58
2022-11-22T01:01:08.434Z,3.30
2022-11-22T01:02:41.493Z,3.40
2022-11-22T01:04:13.153Z,3.10
2022-11-22T01:05:44.796Z,3.20
2022-11-22T01:07:16.544Z,3.10
2022-11-22T01:08:48.382Z,3.53
2022-11-22T01:10:20.067Z,3.05
2022-11-22T01:11:52.237Z,3.13
2022-11-22T01:13:23.962Z,3.33
2022-11-22T01:14:55.749Z,3.38
2022-11-22T01:16:27.507Z,3.47
2022-11-22T01:18:00.544Z,3.03
2022-11-22T01:19:32.511Z,3.40
2022-11-22T01:21:05.908Z,3.60
2022-11-22T01:22:37.578Z,3.17
2022-11-22T01:24:09.471Z,3.42
2022-11-22T01:25:42.915Z,3.25
2022-11-22T01:27:14.726Z,3.30
2022-11-22T01:28:47.835Z,3.15
2022-11-22T01:30:19.715Z,3.22
2022-11-22T01:31:51.356Z,3.10
2022-11-22T01:33:24.444Z,3.38
2022-11-22T01:34:56.198Z,3.40
2022-11-22T01:36:27.915Z,3.20
2022-11-22T01:37:59.567Z,3.35
2022-11-22T01:39:31.703Z,3.33
2022-11-22T01:41:03.752Z,3.35
2022-11-22T01:42:49.074Z,3.10
2022-11-22T01:44:22.738Z,3.30
2022-11-22T01:45:55.524Z,3.75
2022-11-22T01:47:27.517Z,3.17
2022-11-22T01:49:04.587Z,3.10
2022-11-22T01:50:40.758Z,3.10
2022-11-22T01:52:16.055Z,3.22
2022-11-22T01:53:48.459Z,3.38
2022-11-22T01:55:20.401Z,3.30
2022-11-22T01:56:55.093Z,3.30
2022-11-22T01:58:30.315Z,3.10
2022-11-22T02:00:05.567Z,3.35
2022-11-22T02:01:37.782Z,3.17
2022-11-22T02:03:13.240Z,3.30
2022-11-22T02:04:47.688Z,3.05
2022-11-22T02:06:20.411Z,3.25
2022-11-22T02:07:56.836Z,3.95
2022-11-22T02:09:29.647Z,3.10
2022-11-22T02:11:03.407Z,3.33
2022-11-22T02:12:36.608Z,3.30
2022-11-22T02:14:09.732Z,2.95
2022-11-22T02:15:41.836Z,3.13
2022-11-22T02:17:13.455Z,3.10
2022-11-22T02:18:45.615Z,3.78
2022-11-22T02:20:19.276Z,3.40
2022-11-22T02:21:55.982Z,3.28
2022-11-22T02:23:38.306Z,3.22
2022-11-22T02:25:19.011Z,3.42
2022-11-22T02:26:52.074Z,3.10
2022-11-22T02:28:24.808Z,3.22
2022-11-22T02:29:56.443Z,3.08
2022-11-22T02:31:49.085Z,3.13
2022-11-22T02:33:20.749Z,2.75
2022-11-22T02:34:52.364Z,3.38
2022-11-22T02:36:24.058Z,3.55
2022-11-22T02:37:57.861Z,3.35
2022-11-22T02:39:31.961Z,3.55
2022-11-22T02:41:08.892Z,3.75
2022-11-22T02:42:45.552Z,3.80
2022-11-22T02:44:19.273Z,3.50
2022-11-22T02:45:50.926Z,3.25
2022-11-22T02:47:22.626Z,3.30
2022-11-22T02:48:54.241Z,3.38
2022-11-22T02:50:25.934Z,3.20
2022-11-22T02:51:57.566Z,3.50
2022-11-22T02:53:30.423Z,3.08
2022-11-22T02:55:02.302Z,3.90
2022-11-22T02:56:33.922Z,3.40
2022-11-22T02:58:06.966Z,3.55
2022-11-22T02:59:38.691Z,3.58
2022-11-22T03:01:11.146Z,3.20
2022-11-22T03:02:42.854Z,3.83
2022-11-22T03:04:24.598Z,3.80
2022-11-22T03:05:56.766Z,3.83
2022-11-22T03:07:28.496Z,3.58
2022-11-22T03:09:00.197Z,3.17
2022-11-22T03:10:31.836Z,3.88
2022-11-22T03:12:03.875Z,3.58
2022-11-22T03:13:36.880Z,3.72
2022-11-22T03:15:09.104Z,3.00
2022-11-22T03:16:40.992Z,3.45
2022-11-22T03:18:12.629Z,3.10
2022-11-22T03:19:44.287Z,3.70
2022-11-22T03:21:15.974Z,3.92
2022-11-22T03:22:47.621Z,3.22
2022-11-22T03:24:20.222Z,3.50
2022-11-22T03:25:51.942Z,3.30
2022-11-22T03:27:26.885Z,3.28
2022-11-22T03:29:00.491Z,3.38
2022-11-22T03:30:32.491Z,3.08
2022-11-22T03:32:04.456Z,3.17
2022-11-22T03:33:36.149Z,3.30
2022-11-22T03:35:08.699Z,3.00
2022-11-22T03:36:40.378Z,3.50
2022-11-22T03:38:11.965Z,3.45
2022-11-22T03:39:43.607Z,3.83
2022-11-22T03:41:15.302Z,3.45
2022-11-22T03:42:46.914Z,4.03
2022-11-22T03:44:20.118Z,3.92
2022-11-22T03:45:51.970Z,3.55
2022-11-22T03:47:23.645Z,3.65
2022-11-22T03:48:55.274Z,4.32
2022-11-22T03:50:27.065Z,3.95
2022-11-22T03:51:58.677Z,3.67
2022-11-22T03:53:30.298Z,4.07
2022-11-22T03:55:01.901Z,3.70
2022-11-22T03:56:33.578Z,4.15
2022-11-22T03:58:05.653Z,3.83
2022-11-22T03:59:38.694Z,3.90
2022-11-22T04:01:16.181Z,4.32
2022-11-22T04:02:48.334Z,3.75
2022-11-22T04:04:20.060Z,3.65
2022-11-22T04:05:51.754Z,3.97
2022-11-22T04:07:23.445Z,3.45
2022-11-22T04:08:55.202Z,4.40
2022-11-22T04:10:27.001Z,4.13
2022-11-22T04:11:58.634Z,4.50
2022-11-22T04:13:50.530Z,3.70
2022-11-22T04:15:23.561Z,3.90
2022-11-22T04:16:55.203Z,7.15
2022-11-22T04:18:26.919Z,4.05
2022-11-22T04:20:17.103Z,3.42
2022-11-22T04:23:22.213Z,3.67
2022-11-22T04:25:12.331Z,3.47
2022-11-22T04:28:18.091Z,3.72
2022-11-22T04:29:49.732Z,3.85
2022-11-22T04:31:41.517Z,3.08
2022-11-22T04:33:14.738Z,4.13
2022-11-22T04:34:46.449Z,3.40
2022-11-22T04:36:18.075Z,4.00
2022-11-22T04:37:50.936Z,3.63
2022-11-22T04:39:22.706Z,3.25
2022-11-22T04:40:54.477Z,4.10
2022-11-22T04:42:44.584Z,3.67
2022-11-22T04:46:06.516Z,3.38
2022-11-22T04:47:58.213Z,3.42
2022-11-22T04:49:30.031Z,3.10
2022-11-22T04:51:20.501Z,3.67
2022-11-22T04:52:53.606Z,3.20
2022-11-22T04:54:25.453Z,3.53
2022-11-22T04:55:57.682Z,3.25
2022-11-22T04:57:29.411Z,3.75
2022-11-22T04:59:01.150Z,3.80
2022-11-22T05:00:32.987Z,3.42
2022-11-22T05:02:04.661Z,3.58
2022-11-22T05:03:37.723Z,3.80
2022-11-22T05:05:09.849Z,3.17
2022-11-22T05:06:41.483Z,3.30
2022-11-22T05:08:13.891Z,4.30
2022-11-22T05:09:45.532Z,3.70
2022-11-22T05:11:17.248Z,3.35
2022-11-22T05:12:48.871Z,3.22
2022-11-22T05:14:20.485Z,4.60
2022-11-22T05:15:52.357Z,3.22
2022-11-22T05:17:24.018Z,4.15
2022-11-22T05:19:00.037Z,3.38
2022-11-22T05:20:31.674Z,3.75
2022-11-22T05:22:03.325Z,3.53
2022-11-22T05:23:54.012Z,3.70
2022-11-22T05:25:25.965Z,3.50
2022-11-22T05:26:57.637Z,3.70
2022-11-22T05:28:29.921Z,4.00
2022-11-22T05:30:01.618Z,3.40
2022-11-22T05:31:34.514Z,3.95
2022-11-22T05:33:06.195Z,3.75
2022-11-22T05:34:39.141Z,3.83
2022-11-22T05:36:12.069Z,3.67
2022-11-22T05:37:43.649Z,3.70
2022-11-22T05:39:15.355Z,3.67
2022-11-22T05:40:47.055Z,3.53
2022-11-22T05:42:18.784Z,2.97
2022-11-22T05:43:50.598Z,3.78
2022-11-22T05:45:22.306Z,3.65
2022-11-22T05:46:54.018Z,3.85
2022-11-22T05:48:26.725Z,3.90
2022-11-22T05:49:59.729Z,3.60
2022-11-22T05:51:34.679Z,3.30
2022-11-22T05:53:06.844Z,3.30
2022-11-22T05:54:38.540Z,3.55
2022-11-22T05:56:11.759Z,3.75
2022-11-22T05:57:43.413Z,4.00
2022-11-22T05:59:15.057Z,3.90
2022-11-22T06:00:46.731Z,3.88
2022-11-22T06:02:18.861Z,4.85
2022-11-22T06:03:50.775Z,4.47
2022-11-22T06:05:23.741Z,4.20
2022-11-22T06:06:55.465Z,3.92
2022-11-22T06:08:29.274Z,3.97
2022-11-22T06:10:00.911Z,3.72
2022-11-22T06:11:32.610Z,3.60
2022-11-22T06:13:05.304Z,3.85
2022-11-22T06:14:42.908Z,3.33
2022-11-22T06:16:15.635Z,3.60
2022-11-22T06:17:47.512Z,3.53
2022-11-22T06:19:19.192Z,3.13
2022-11-22T06:20:52.168Z,2.97
2022-11-22T06:22:24.057Z,3.38
2022-11-22T06:23:56.268Z,3.78
2022-11-22T06:25:28.582Z,3.67
2022-11-22T06:27:00.709Z,3.72
2022-11-22T06:28:34.661Z,3.70
2022-11-22T06:30:07.765Z,3.88
2022-11-22T06:31:39.405Z,3.25
2022-11-22T06:33:11.059Z,3.83
2022-11-22T06:34:42.689Z,3.58
2022-11-22T06:36:17.840Z,3.25
2022-11-22T06:37:49.582Z,3.17
2022-11-22T06:39:21.346Z,3.40
2022-11-22T06:40:53.029Z,4.07
2022-11-22T06:42:24.952Z,4.05
2022-11-22T06:43:57.522Z,3.80
2022-11-22T06:45:29.130Z,4.55
2022-11-22T06:47:00.751Z,3.70
2022-11-22T06:48:34.524Z,3.70
2022-11-22T06:50:06.974Z,4.55
2022-11-22T06:51:39.958Z,3.70
2022-11-22T06:53:32.387Z,3.83
2022-11-22T06:55:07.977Z,5.70
2022-11-22T06:56:41.125Z,3.88
2022-11-22T06:58:12.817Z,3.65
2022-11-22T06:59:44.431Z,3.70
2022-11-22T07:01:18.219Z,3.90
2022-11-22T07:02:50.045Z,3.85
2022-11-22T07:04:21.865Z,4.53
2022-11-22T07:05:54.060Z,4.13
2022-11-22T07:07:27.126Z,4.43
2022-11-22T07:08:59.401Z,4.30
2022-11-22T07:10:31.154Z,3.72
2022-11-22T07:12:04.062Z,4.13
2022-11-22T07:13:36.357Z,3.90
2022-11-22T07:15:08.975Z,3.63
2022-11-22T07:16:40.734Z,4.22
2022-11-22T07:18:12.351Z,3.60
2022-11-22T07:19:44.036Z,6.00
2022-11-22T07:21:17.459Z,4.25
2022-11-22T07:22:50.509Z,4.10
2022-11-22T07:24:22.156Z,4.65
2022-11-22T07:25:53.839Z,4.80
2022-11-22T07:27:25.454Z,3.90
2022-11-22T07:28:57.099Z,4.22
2022-11-22T07:30:28.820Z,3.92
2022-11-22T07:32:00.508Z,3.75
2022-11-22T07:33:32.808Z,3.88
2022-11-22T07:35:05.240Z,3.88
2022-11-22T07:36:36.923Z,4.25
2022-11-22T07:38:09.893Z,4.20
2022-11-22T07:39:41.488Z,4.07
2022-11-22T07:41:13.481Z,4.47
2022-11-22T07:42:45.138Z,4.00
2022-11-22T07:44:16.794Z,3.60
2022-11-22T07:45:48.602Z,3.90
2022-11-22T07:47:23.107Z,3.42
2022-11-22T07:48:55.148Z,3.47
2022-11-22T07:50:26.992Z,4.13
2022-11-22T07:51:59.463Z,3.78
2022-11-22T07:53:32.907Z,3.95
2022-11-22T07:55:13.916Z,4.07
2022-11-22T07:56:45.968Z,6.72
2022-11-22T07:58:17.590Z,3.42
2022-11-22T07:59:49.271Z,3.78
2022-11-22T08:01:21.785Z,3.90
2022-11-22T08:02:53.699Z,3.58
2022-11-22T08:04:25.373Z,3.67
2022-11-22T08:05:59.417Z,3.60
2022-11-22T08:07:31.146Z,3.40
2022-11-22T08:09:04.175Z,3.40
2022-11-22T08:10:35.778Z,3.67
2022-11-22T08:12:07.456Z,3.97
2022-11-22T08:13:40.231Z,3.85
2022-11-22T08:15:14.011Z,3.30
2022-11-22T08:16:45.981Z,3.63
2022-11-22T08:18:17.704Z,3.80
2022-11-22T08:19:53.340Z,4.18
2022-11-22T08:21:24.993Z,4.13
2022-11-22T08:22:56.663Z,3.70
2022-11-22T08:24:29.731Z,4.25
2022-11-22T08:26:01.611Z,3.65
2022-11-22T08:27:33.279Z,3.80
2022-11-22T08:29:08.827Z,3.97
2022-11-22T08:30:44.357Z,4.22
2022-11-22T08:32:17.048Z,5.32
2022-11-22T08:33:48.795Z,3.70
2022-11-22T08:35:20.479Z,3.80
2022-11-22T08:36:52.088Z,4.15
2022-11-22T08:38:24.092Z,3.55
2022-11-22T08:39:57.350Z,3.65
2022-11-22T08:41:28.982Z,3.50
2022-11-22T08:43:00.596Z,3.08
2022-11-22T08:44:32.214Z,3.50
2022-11-22T08:46:04.233Z,3.35
2022-11-22T08:47:35.952Z,3.47
2022-11-22T08:49:07.653Z,4.00
2022-11-22T08:50:39.256Z,3.78
2022-11-22T08:52:11.070Z,3.30
2022-11-22T08:53:43.777Z,3.22
2022-11-22T08:55:16.998Z,2.95
2022-11-22T08:56:50.513Z,3.38
2022-11-22T08:58:22.678Z,3.47
2022-11-22T08:59:54.348Z,3.15
2022-11-22T09:01:26.042Z,2.97
2022-11-22T09:02:57.806Z,3.20
2022-11-22T09:04:29.404Z,2.85
2022-11-22T09:09:45.689Z,4.20
2022-11-22T09:11:20.458Z,3.88
2022-11-22T09:12:52.112Z,4.45
2022-11-22T09:14:23.985Z,4.07
2022-11-22T09:15:56.048Z,4.00
2022-11-22T09:17:27.663Z,3.97
2022-11-22T09:18:59.352Z,3.80
2022-11-22T09:20:31.114Z,3.38
2022-11-22T09:22:02.747Z,4.55
2022-11-22T09:23:35.380Z,4.03
2022-11-22T09:25:08.075Z,4.00
2022-11-22T09:26:41.228Z,3.63
2022-11-22T09:28:12.889Z,3.92
2022-11-22T09:29:44.659Z,3.70
2022-11-22T09:31:18.996Z,3.30
2022-11-22T09:32:50.607Z,3.30
2022-11-22T09:34:22.274Z,2.90
2022-11-22T09:35:59.768Z,4.28
2022-11-22T09:37:32.099Z,3.17
2022-11-22T09:39:04.061Z,2.67
2022-11-22T09:40:36.280Z,3.10
2022-11-22T09:42:36.847Z,3.00
2022-11-22T09:44:19.586Z,2.90
2022-11-22T09:46:06.928Z,2.70
2022-11-22T09:47:48.281Z,2.88
2022-11-22T09:49:42.697Z,3.10
2022-11-22T09:51:17.832Z,3.10
2022-11-22T09:52:54.034Z,2.60
2022-11-22T09:54:30.607Z,2.25
2022-11-22T09:56:07.710Z,3.17
2022-11-22T09:57:44.388Z,2.90
2022-11-22T09:59:21.291Z,2.95
2022-11-22T10:00:54.743Z,2.78
2022-11-22T10:02:43.562Z,2.70
2022-11-22T10:04:25.693Z,2.33
2022-11-22T10:06:01.186Z,2.65
2022-11-22T10:07:37.604Z,2.88
2022-11-22T10:09:27.449Z,2.83
2022-11-22T10:10:59.918Z,2.67
2022-11-22T10:12:38.650Z,3.40
2022-11-22T10:14:24.226Z,2.67
2022-11-22T10:16:03.032Z,2.63
2022-11-22T10:17:47.439Z,2.58
2022-11-22T10:19:24.229Z,2.70
2022-11-22T10:20:55.928Z,2.70
2022-11-22T10:22:30.289Z,2.45
2022-11-22T10:24:02.468Z,2.50
2022-11-22T10:25:39.893Z,2.45
2022-11-22T10:27:13.902Z,2.67
2022-11-22T10:28:56.459Z,2.60
2022-11-22T10:30:35.670Z,2.35
2022-11-22T10:32:17.152Z,2.37
2022-11-22T10:34:01.524Z,2.13
2022-11-22T10:35:49.767Z,2.80
2022-11-22T10:37:30.451Z,2.60
2022-11-22T10:39:19.430Z,2.55
2022-11-22T10:41:01.552Z,2.50
2022-11-22T10:42:51.029Z,2.50
2022-11-22T10:44:35.675Z,2.30
2022-11-22T10:46:20.941Z,2.20
2022-11-22T10:48:04.893Z,3.03
2022-11-22T10:49:56.242Z,2.60
2022-11-22T10:51:41.991Z,2.38
2022-11-22T10:53:22.623Z,2.22
2022-11-22T10:55:03.441Z,2.30
2022-11-22T10:56:43.165Z,2.65
2022-11-22T10:58:27.660Z,2.35
2022-11-22T11:00:16.391Z,2.33
2022-11-22T11:02:01.242Z,2.20
2022-11-22T11:03:35.054Z,2.00
2022-11-22T11:05:10.358Z,1.73
2022-11-22T11:09:36.072Z,2.20
2022-11-22T11:10:39.728Z,2.30
2022-11-22T11:12:15.888Z,2.13
2022-11-22T11:13:51.494Z,2.20
2022-11-22T11:15:28.501Z,2.25
2022-11-22T11:17:02.621Z,2.10
2022-11-22T11:18:41.548Z,2.15
2022-11-22T11:20:19.423Z,2.15
2022-11-22T11:21:58.008Z,2.17
2022-11-22T11:23:29.596Z,1.60
2022-11-22T11:25:33.120Z,2.28
2022-11-22T11:27:05.068Z,1.98
2022-11-22T11:28:36.718Z,2.00
2022-11-22T11:30:12.926Z,2.10
2022-11-22T11:31:46.296Z,1.98
2022-11-22T11:33:26.340Z,2.15
2022-11-22T11:36:32.033Z,1.95
2022-11-22T11:38:03.728Z,2.28
2022-11-22T11:39:38.406Z,2.03
2022-11-22T11:41:22.021Z,2.00
2022-11-22T11:43:14.955Z,1.70
2022-11-22T11:44:46.638Z,1.58
2022-11-22T11:46:20.079Z,1.73
2022-11-22T11:47:51.871Z,1.83
2022-11-22T11:49:26.589Z,1.60
2022-11-22T11:51:36.183Z,1.83
2022-11-22T11:53:24.195Z,1.77
2022-11-22T11:54:58.907Z,1.92
2022-11-22T11:56:40.648Z,2.00
2022-11-22T11:58:19.986Z,1.60
2022-11-22T11:59:53.787Z,1.80
2022-11-22T12:01:26.271Z,1.60
2022-11-22T12:03:01.396Z,1.48
2022-11-22T12:04:37.028Z,1.75
2022-11-22T12:06:12.790Z,1.52
2022-11-22T12:07:45.923Z,1.70
2022-11-22T12:09:30.416Z,1.80
2022-11-22T12:11:08.752Z,1.90
2022-11-22T12:12:46.680Z,1.73
2022-11-22T12:14:42.686Z,1.40
2022-11-22T12:16:22.695Z,1.67
2022-11-22T12:18:00.294Z,2.15
2022-11-22T12:19:44.499Z,1.90
2022-11-22T12:21:22.547Z,1.83
2022-11-22T12:23:09.791Z,1.70
2022-11-22T12:25:09.179Z,1.85
2022-11-22T12:26:38.629Z,1.88
2022-11-22T12:28:18.202Z,1.95
2022-11-22T12:29:49.946Z,1.70
2022-11-22T12:31:29.703Z,1.75
2022-11-22T12:33:05.696Z,1.85
2022-11-22T12:34:48.425Z,1.70
2022-11-22T12:36:26.000Z,1.80
2022-11-22T12:38:08.802Z,1.55
2022-11-22T12:39:46.578Z,1.87
2022-11-22T12:41:23.483Z,1.60
2022-11-22T12:42:58.952Z,1.80
2022-11-22T12:44:38.664Z,1.67
2022-11-22T12:46:13.745Z,2.10
2022-11-22T12:47:47.586Z,1.38
2022-11-22T12:49:31.023Z,1.85
2022-11-22T12:51:12.765Z,1.60
2022-11-22T12:52:50.436Z,1.30
2022-11-22T12:54:30.113Z,1.58
2022-11-22T12:56:08.380Z,1.67
2022-11-22T12:57:45.797Z,1.90
2022-11-22T12:59:28.890Z,1.60
2022-11-22T13:01:10.141Z,1.60
2022-11-22T13:02:55.896Z,2.03
2022-11-22T13:04:38.846Z,2.10
2022-11-22T13:06:13.997Z,1.90
2022-11-22T13:07:56.459Z,2.17
2022-11-22T13:09:31.829Z,2.60
2022-11-22T13:11:12.086Z,1.83
2022-11-22T13:12:45.995Z,1.80
2022-11-22T13:14:22.630Z,1.67
2022-11-22T13:15:57.631Z,1.55
2022-11-22T13:17:33.673Z,1.50
2022-11-22T13:19:06.944Z,1.70
2022-11-22T13:20:44.986Z,1.90
2022-11-22T13:22:28.181Z,1.50
2022-11-22T13:24:19.862Z,1.67
2022-11-22T13:26:01.942Z,2.35
2022-11-22T13:27:36.111Z,1.42
2022-11-22T13:29:18.483Z,1.88
2022-11-22T13:31:20.683Z,1.30
2022-11-22T13:32:54.408Z,1.30
2022-11-22T13:34:26.500Z,2.00
2022-11-22T13:36:30.611Z,1.85
2022-11-22T13:38:06.552Z,1.83
2022-11-22T13:39:43.774Z,2.70
2022-11-22T13:41:24.308Z,3.40
2022-11-22T13:43:47.142Z,3.00
2022-11-22T13:45:23.168Z,2.10
2022-11-22T13:46:57.637Z,1.77
2022-11-22T13:49:06.571Z,1.95
2022-11-22T13:51:02.958Z,1.63
2022-11-22T13:52:52.980Z,1.50
2022-11-22T13:55:01.016Z,1.30
2022-11-22T13:56:58.412Z,1.42
2022-11-22T13:58:54.495Z,1.63
2022-11-22T14:00:40.298Z,1.45
2022-11-22T14:02:23.089Z,1.45
2022-11-22T14:04:14.734Z,1.40
2022-11-22T14:05:49.294Z,1.45
2022-11-22T14:07:28.944Z,1.48
2022-11-22T14:09:28.539Z,2.20
2022-11-22T14:11:24.594Z,2.10
2022-11-22T14:13:11.015Z,2.50
2022-11-22T14:14:54.249Z,2.40
2022-11-22T14:16:46.518Z,1.75
2022-11-22T14:18:40.806Z,1.83
2022-11-22T14:20:32.311Z,1.60
2022-11-22T14:22:20.377Z,1.30
2022-11-22T14:24:02.355Z,1.60
2022-11-22T14:25:50.942Z,1.60
2022-11-22T14:27:36.525Z,1.40
2022-11-22T14:29:37.014Z,1.48
2022-11-22T14:31:14.531Z,1.58
2022-11-22T14:32:53.904Z,1.95
2022-11-22T14:34:27.057Z,1.75
2022-11-22T14:36:15.630Z,1.15
2022-11-22T14:37:56.777Z,1.40
2022-11-22T14:39:54.750Z,1.15
2022-11-22T14:41:40.599Z,0.88
2022-11-22T14:43:33.833Z,1.10
2022-11-22T14:45:22.805Z,1.00
2022-11-22T14:46:58.273Z,1.42
2022-11-22T14:48:35.268Z,1.48
2022-11-22T14:50:14.208Z,1.10
2022-11-22T14:51:51.266Z,1.42
2022-11-22T14:53:34.788Z,1.52
2022-11-22T14:55:15.009Z,1.45
2022-11-22T14:56:47.143Z,1.27
2022-11-22T14:58:24.155Z,1.40
2022-11-22T15:00:17.856Z,1.33
2022-11-22T15:02:19.180Z,1.42
2022-11-22T15:09:13.537Z,1.30
2022-11-22T15:09:16.787Z,1.40
2022-11-22T15:09:28.065Z,1.65
2022-11-22T15:10:29.915Z,1.17
2022-11-22T15:12:14.799Z,1.30
2022-11-22T15:14:04.615Z,1.58
2022-11-22T15:58:12.804Z,1.50
2022-11-22T15:59:46.836Z,1.77
2022-11-22T16:01:19.617Z,1.85
2022-11-22T16:02:56.657Z,1.65
2022-11-22T16:04:30.460Z,1.73
2022-11-22T16:06:08.699Z,1.70
2022-11-22T16:07:47.333Z,1.45
2022-11-22T16:09:25.804Z,1.60
2022-11-22T16:10:57.510Z,1.60
2022-11-22T16:12:35.197Z,1.63
2022-11-22T16:14:40.191Z,1.73
2022-11-22T16:16:20.440Z,1.92
2022-11-22T16:18:01.002Z,1.88
2022-11-22T16:19:32.917Z,1.63
2022-11-22T16:21:07.083Z,1.83
2022-11-22T16:22:38.761Z,1.77
2022-11-22T16:24:17.416Z,1.70
2022-11-22T16:25:52.360Z,1.83
2022-11-22T16:27:24.068Z,1.70
2022-11-22T16:28:57.334Z,1.77
2022-11-22T16:30:30.045Z,2.38
2022-11-22T16:32:03.362Z,1.90
2022-11-22T16:33:36.357Z,2.20
2022-11-22T16:35:28.450Z,2.30
2022-11-22T16:37:01.235Z,2.20
2022-11-22T16:38:32.931Z,2.20
2022-11-22T16:40:06.076Z,2.20
2022-11-22T16:41:37.769Z,2.08
2022-11-22T16:43:15.564Z,2.40
2022-11-22T16:44:47.378Z,2.40
2022-11-22T16:46:19.537Z,2.75
2022-11-22T16:48:03.797Z,2.40
2022-11-22T16:49:45.395Z,2.67
2022-11-22T16:51:22.529Z,2.50
2022-11-22T16:53:02.424Z,2.50
2022-11-22T16:54:34.506Z,2.85
2022-11-22T16:56:07.092Z,2.83
2022-11-22T16:57:41.059Z,2.55
2022-11-22T16:59:13.557Z,2.90
2022-11-22T17:00:46.633Z,2.53
2022-11-22T17:02:18.453Z,2.80
2022-11-22T17:03:53.960Z,2.70
2022-11-22T17:05:27.003Z,2.95
2022-11-22T17:06:58.770Z,2.80
2022-11-22T17:08:30.533Z,3.03
2022-11-22T17:10:02.993Z,2.80
2022-11-22T17:11:34.795Z,2.90
2022-11-22T17:13:06.463Z,2.70
2022-11-22T17:14:38.064Z,2.70
2022-11-22T17:16:10.643Z,2.60
2022-11-22T17:17:42.250Z,2.67
2022-11-22T17:19:37.398Z,2.63
2022-11-22T17:21:16.230Z,2.53
2022-11-22T17:22:48.112Z,2.75
2022-11-22T17:24:21.218Z,2.58
2022-11-22T17:25:52.880Z,2.75
2022-11-22T17:27:24.662Z,3.00
2022-11-22T17:28:56.359Z,2.70
2022-11-22T17:30:28.023Z,2.63
2022-11-22T17:31:59.671Z,3.20
2022-11-22T17:33:31.340Z,3.00
2022-11-22T17:35:02.955Z,2.85
2022-11-22T17:36:36.783Z,2.90
2022-11-22T17:38:11.184Z,2.80
2022-11-22T17:39:42.865Z,2.90
2022-11-22T17:41:14.480Z,2.50
2022-11-22T17:42:46.129Z,2.55
2022-11-22T17:44:18.190Z,2.60
2022-11-22T17:45:49.889Z,2.50
2022-11-22T17:47:21.596Z,2.70
2022-11-22T17:48:54.084Z,2.65
2022-11-22T17:50:26.035Z,1.95
2022-11-22T17:51:59.058Z,2.25
2022-11-22T17:53:30.717Z,2.70
2022-11-22T17:55:05.706Z,2.30
2022-11-22T17:56:38.114Z,2.40
2022-11-22T17:58:09.833Z,2.63
2022-11-22T17:59:43.137Z,2.75
2022-11-22T18:01:16.320Z,2.30
2022-11-22T18:02:48.381Z,2.33
2022-11-22T18:04:20.104Z,2.17
2022-11-22T18:05:51.720Z,1.90
2022-11-22T18:07:28.336Z,1.73
2022-11-22T18:09:00.865Z,1.92
2022-11-22T18:10:32.586Z,2.10
2022-11-22T18:12:05.137Z,1.85
2022-11-22T18:13:38.284Z,2.15
2022-11-22T18:15:10.380Z,1.95
2022-11-22T18:16:42.042Z,1.75
2022-11-22T18:18:40.357Z,2.22
2022-11-22T18:20:07.230Z,1.98
2022-11-22T18:21:39.019Z,2.40
2022-11-22T18:23:12.082Z,2.45
2022-11-22T18:24:43.791Z,1.92
2022-11-22T18:28:07.376Z,2.10
2022-11-22T18:29:53.632Z,1.92
2022-11-22T18:31:29.822Z,2.20
2022-11-22T18:33:03.153Z,2.40
2022-11-22T18:34:34.797Z,2.17
2022-11-22T18:36:49.966Z,2.47
2022-11-22T18:38:06.509Z,2.30
2022-11-22T18:39:40.582Z,2.28
2022-11-22T18:41:12.362Z,2.10
2022-11-22T18:42:45.967Z,2.10
2022-11-22T18:44:18.059Z,2.40
2022-11-22T18:45:49.766Z,2.40
2022-11-22T18:47:21.398Z,2.05
2022-11-22T18:48:53.177Z,2.33
2022-11-22T18:50:25.393Z,2.22
2022-11-22T18:51:57.134Z,2.40
2022-11-22T18:53:29.142Z,2.47
2022-11-22T18:55:02.179Z,2.30
2022-11-22T18:56:37.829Z,2.45
2022-11-22T18:58:09.708Z,2.13
2022-11-22T18:59:41.467Z,2.72
2022-11-22T19:01:15.156Z,2.55
2022-11-22T19:02:47.427Z,2.25
2022-11-22T19:04:19.154Z,2.75
2022-11-22T19:05:50.829Z,2.28
2022-11-22T19:07:22.973Z,2.30
2022-11-22T19:08:55.288Z,2.60
2022-11-22T19:10:28.307Z,2.80
2022-11-22T19:12:00.033Z,2.75
2022-11-22T19:13:33.060Z,2.60
2022-11-22T19:15:06.304Z,2.58
2022-11-22T19:16:38.059Z,2.90
2022-11-22T19:18:09.932Z,2.67
2022-11-22T19:19:41.621Z,3.28
2022-11-22T19:21:14.768Z,5.15
2022-11-22T19:22:46.426Z,3.00
2022-11-22T19:24:18.089Z,3.00
2022-11-22T19:25:51.137Z,3.17
2022-11-22T19:27:24.179Z,2.90
2022-11-22T19:28:57.400Z,3.22
2022-11-22T19:30:29.265Z,3.10
2022-11-22T19:32:00.902Z,3.53
2022-11-22T19:33:32.663Z,3.63
2022-11-22T19:35:04.920Z,3.15
2022-11-22T19:36:37.595Z,3.20
2022-11-22T19:38:09.337Z,3.15
2022-11-22T19:39:41.037Z,3.47
2022-11-22T19:41:16.737Z,3.45
2022-11-22T19:42:48.721Z,3.30
2022-11-22T19:44:21.086Z,3.60
2022-11-22T19:45:52.773Z,3.08
2022-11-22T19:47:24.424Z,3.20
2022-11-22T19:48:57.578Z,3.47
2022-11-22T19:50:29.191Z,3.20
2022-11-22T19:52:00.806Z,2.88
2022-11-22T19:53:32.850Z,3.20
2022-11-22T19:55:05.142Z,3.30
2022-11-22T19:56:38.460Z,2.80
2022-11-22T19:58:10.574Z,3.25
2022-11-22T19:59:42.444Z,3.30
2022-11-22T20:01:15.511Z,3.10
2022-11-22T20:02:47.183Z,3.10
2022-11-22T20:04:18.848Z,3.00
2022-11-22T20:05:50.570Z,3.08
2022-11-22T20:07:22.260Z,2.92
2022-11-22T20:08:59.973Z,2.88
2022-11-22T20:10:32.639Z,2.88
2022-11-22T20:12:06.123Z,2.80
2022-11-22T20:13:39.386Z,2.90
2022-11-22T20:15:11.592Z,2.83
2022-11-22T20:16:43.695Z,2.80
2022-11-22T20:18:15.342Z,2.60
2022-11-22T20:19:47.085Z,2.70
2022-11-22T20:21:22.053Z,2.75
2022-11-22T20:22:54.399Z,2.85
2022-11-22T20:24:27.438Z,2.88
2022-11-22T20:26:01.320Z,2.83
2022-11-22T20:27:34.448Z,2.70
2022-11-22T20:29:08.051Z,3.10
2022-11-22T20:30:39.731Z,2.80
2022-11-22T20:32:12.015Z,2.95
2022-11-22T20:33:45.789Z,2.78
2022-11-22T20:35:17.442Z,2.80
2022-11-22T20:36:49.096Z,2.70
2022-11-22T20:38:20.807Z,2.72
2022-11-22T20:39:52.428Z,2.65
2022-11-22T20:41:25.880Z,2.78
2022-11-22T20:42:58.919Z,2.63
2022-11-22T20:44:33.836Z,2.58
2022-11-22T20:46:08.101Z,2.90
2022-11-22T20:47:39.736Z,2.80
2022-11-22T20:49:12.894Z,3.28
2022-11-22T20:50:49.936Z,2.60
2022-11-22T20:52:21.598Z,3.08
2022-11-22T20:53:54.235Z,2.80
2022-11-22T20:55:26.169Z,2.80
2022-11-22T20:56:57.783Z,3.42
2022-11-22T20:58:31.925Z,2.60
2022-11-22T21:00:04.167Z,2.63
2022-11-22T21:01:36.305Z,2.72
2022-11-22T21:03:08.246Z,2.70
2022-11-22T21:04:40.202Z,2.38
2022-11-22T21:06:12.939Z,2.47
2022-11-22T21:07:44.631Z,2.53
2022-11-22T21:09:16.326Z,2.75
2022-11-22T21:10:48.467Z,2.70
2022-11-22T21:12:20.156Z,2.70
2022-11-22T21:13:53.604Z,2.30
2022-11-22T21:15:25.309Z,2.83
2022-11-22T21:16:57.933Z,3.20
2022-11-22T21:18:30.472Z,2.75
2022-11-22T21:20:02.207Z,2.70
2022-11-22T21:21:35.675Z,3.10
2022-11-22T21:23:07.350Z,2.90
2022-11-22T21:24:39.049Z,2.60
2022-11-22T21:26:10.879Z,2.75
2022-11-22T21:27:42.520Z,2.90
2022-11-22T21:29:16.771Z,2.70
2022-11-22T21:30:52.928Z,2.78
2022-11-22T21:32:24.922Z,2.92
2022-11-22T21:33:56.594Z,3.00
2022-11-22T21:35:28.245Z,2.50
2022-11-22T21:36:59.885Z,2.67
2022-11-22T21:38:32.866Z,2.60
2022-11-22T21:40:06.891Z,2.65
2022-11-22T21:41:40.155Z,2.78
2022-11-22T21:43:12.151Z,2.38
2022-11-22T21:44:45.144Z,2.80
2022-11-22T21:46:18.270Z,2.80
2022-11-22T21:47:50.710Z,2.90
2022-11-22T21:49:22.365Z,3.13
2022-11-22T21:50:55.846Z,2.80
2022-11-22T21:52:27.515Z,3.30
2022-11-22T21:54:00.212Z,3.13
2022-11-22T21:55:32.222Z,2.63
2022-11-22T21:57:03.855Z,2.72
2022-11-22T21:58:35.535Z,2.95
2022-11-22T22:00:10.639Z,2.90
2022-11-22T22:01:42.297Z,2.60
2022-11-22T22:03:14.771Z,3.03
2022-11-22T22:04:46.397Z,2.90
2022-11-22T22:06:18.111Z,2.92
2022-11-22T22:07:53.120Z,2.97